WIMM/MES METAR and TAF weather

Enter ICAO airport designator
Station Type Date Time Source
WIMM METAR 2018/12/17 03:00 UTC NOAA

WIMM 170300Z 29004KT 9999 SCT018 27/24 Q1013 NOSIG


Station Type Date Time Source
WIMM Decoded METAR 2018/12/17 03:00 UTC NOAA

Medan / Polonia, Indonesia (WIMM) 03-34N 098-41E 25M
Dec 16, 2018 - 10:00 PM EST / 2018.12.17 0300 UTC
Wind: from the WNW (290 degrees) at 5 MPH (4 KT):0
Visibility: greater than 7 mile(s):0
Sky conditions: partly cloudy
Temperature: 80 F (27 C)
Dew Point: 75 F (24 C)
Relative Humidity: 83%
Pressure (altimeter): 29.91 in. Hg (1013 hPa)
ob: WIMM 170300Z 29004KT 9999 SCT018 27/24 Q1013 NOSIG
cycle: 3

Station Type Date Time Source
WIMM TAF 2018/12/16 18:09 UTC NOAA

TAF WIMM 161700Z 1618/1718 25005KT 4500 HZ FEW016CB SCT018
BECMG 1702/1704 32010KT 8000
TEMPO 1704/1706 -TSRA
BECMG 1711/1713 26005KT 4500 HZ


Example: see airport list